CheckWX is a tool to help pilots better visualize weather data.  It is not intended as a substitute for an official pre-flight weather briefing.

21:04:12 UTC

KFDK METAR
Frederick Municipal Airport
Frederick, Maryland, USA
Current

17 mins ago

KFDK 232047Z 20005KT 10SM SKC 24/22 A3000
Observed
May-23 @ 20:47 UTC
Wind
  • 200° at 5 KTS
Visibility
10 SM
Flight Rules
VFR
Cloud Levels
  • Clear skies
Temperature
24°C / 75°F
Dewpoint
22°C / 72°F
Humidity
89%
Altimeter
30" Hg
Pressure
1015.92 hPa
Previous

2 hours ago

KFDK 231905Z 27003KT 7SM BKN028 BKN047 BKN060 22/20 A3010 RMK LTG DSNT E
Observed
May-23 @ 19:05 UTC
Wind
  • 270° at 3 KTS
Visibility
7 SM
Flight Rules
MVFR
Cloud Levels
  • Broken at 2,800' AGL
  • Broken at 4,700' AGL
  • Broken at 6,000' AGL
Temperature
22°C / 72°F
Dewpoint
20°C / 68°F
Humidity
88%
Altimeter
30.1" Hg
Pressure
1019.32 hPa
Previous

2 hours ago

KFDK 231847Z 35012G15KT 2SM TSRA BKN036 BKN048 BKN060 24/19 A3010 RMK FRQ LTGCG VC
Observed
May-23 @ 18:47 UTC
Wind
  • 350° at 12 KTS
  • Gusting to 15 KTS
Visibility
2 SM
Flight Rules
IFR
Conditions
Thunderstorm, Rain
Cloud Levels
  • Broken at 3,600' AGL
  • Broken at 4,800' AGL
  • Broken at 6,000' AGL
Temperature
24°C / 75°F
Dewpoint
19°C / 66°F
Humidity
74%
Altimeter
30.1" Hg
Pressure
1019.32 hPa